Time;durP1;ratioP1;P1;durP2;ratioP2;P2;SDS_P1;SDS_P2;PMS_P1;PMS_P2;Temp;Humidity;BMP_temperature;BMP_pressure;BME280_temperature;BME280_humidity;BME280_pressure;Samples;Min_cycle;Max_cycle;Signal;HPM_P1;HPM_P2
2021/12/23 00:01:31;;;;;;;30.95;20.52;;;-1.50;99.90;;;;;;4955717;29;20043;-84
2021/12/23 00:03:57;;;;;;;30.52;20.73;;;-1.40;99.90;;;;;;4955786;29;20047;-84
2021/12/23 00:06:23;;;;;;;28.88;19.42;;;-1.30;99.90;;;;;;4955364;28;20050;-84
2021/12/23 00:08:49;;;;;;;28.48;18.83;;;-1.20;99.90;;;;;;4955816;29;20096;-84
2021/12/23 00:11:14;;;;;;;28.23;18.65;;;-1.10;99.90;;;;;;4922812;29;20105;-84
2021/12/23 00:13:48;;;;;;;26.95;18.40;;;-1.00;99.90;;;;;;4923628;29;20043;-84
2021/12/23 00:16:19;;;;;;;28.20;18.40;;;-1.00;99.90;;;;;;4924585;29;20043;-84
2021/12/23 00:18:56;;;;;;;27.30;18.27;;;-0.70;99.90;;;;;;4939419;29;20061;-84
2021/12/23 00:24:06;;;;;;;29.02;18.88;;;-1.00;99.90;;;;;;4958685;28;20062;-84
2021/12/23 00:26:32;;;;;;;26.75;18.00;;;-1.00;99.90;;;;;;4941516;28;20093;-84
2021/12/23 00:28:58;;;;;;;27.25;17.27;;;-0.80;99.90;;;;;;4942429;28;20603;-84
2021/12/23 00:31:23;;;;;;;26.58;16.30;;;0.00;99.90;;;;;;4958185;28;20046;-84
2021/12/23 00:33:49;;;;;;;27.58;16.73;;;-0.90;99.90;;;;;;4973306;28;20419;-84
2021/12/23 00:36:15;;;;;;;28.33;16.92;;;-0.90;99.90;;;;;;4974028;28;20078;-84
2021/12/23 00:38:53;;;;;;;25.13;16.23;;;-0.80;99.90;;;;;;4958092;28;20557;-84
2021/12/23 00:41:20;;;;;;;24.55;14.75;;;-0.60;99.90;;;;;;4957074;28;20046;-84
2021/12/23 00:43:46;;;;;;;26.40;17.20;;;-0.30;99.90;;;;;;4957995;28;20182;-84
2021/12/23 00:46:12;;;;;;;27.73;17.52;;;0.00;99.90;;;;;;4974011;28;20078;-84
2021/12/23 00:48:39;;;;;;;27.77;17.10;;;-0.40;99.90;;;;;;4957839;28;20049;-84
2021/12/23 00:51:06;;;;;;;27.65;17.00;;;-0.80;99.90;;;;;;4941936;28;20097;-84
2021/12/23 00:53:38;;;;;;;27.02;15.40;;;-0.80;99.90;;;;;;4957875;28;20161;-84
2021/12/23 00:56:04;;;;;;;22.90;13.48;;;-0.80;99.90;;;;;;4973241;28;20050;-84
2021/12/23 00:58:30;;;;;;;23.95;14.60;;;-0.70;99.90;;;;;;4941957;28;20121;-84
2021/12/23 01:00:59;;;;;;;26.55;15.70;;;-0.60;99.90;;;;;;4941512;28;20050;-84
2021/12/23 01:03:24;;;;;;;24.70;15.48;;;-0.70;99.90;;;;;;4942056;28;20039;-84
2021/12/23 01:05:51;;;;;;;23.73;13.07;;;-0.70;99.90;;;;;;4973611;28;20109;-84
2021/12/23 01:08:19;;;;;;;25.65;17.45;;;0.10;99.90;;;;;;4974093;28;20046;-84
2021/12/23 01:10:49;;;;;;;25.35;16.25;;;-0.40;99.90;;;;;;4956560;28;20043;-84
2021/12/23 01:13:17;;;;;;;25.67;14.88;;;-0.70;99.90;;;;;;4973831;28;20043;-84
2021/12/23 01:16:01;;;;;;;24.13;14.68;;;-0.70;99.90;;;;;;4957323;28;20129;-84
2021/12/23 01:18:31;;;;;;;25.80;16.42;;;-0.70;99.90;;;;;;4973844;28;20038;-84
2021/12/23 01:21:15;;;;;;;25.83;16.23;;;-0.50;99.90;;;;;;4973230;28;20050;-84
2021/12/23 01:23:44;;;;;;;22.95;14.20;;;-0.40;99.90;;;;;;4957244;28;20121;-84
2021/12/23 01:26:12;;;;;;;25.27;14.93;;;-0.60;99.90;;;;;;4958716;28;20047;-84
2021/12/23 01:28:38;;;;;;;25.88;17.52;;;-0.60;99.90;;;;;;4957192;28;20049;-84
2021/12/23 01:31:04;;;;;;;28.17;18.15;;;-0.60;99.90;;;;;;4941385;28;20046;-84
2021/12/23 01:33:29;;;;;;;26.73;18.42;;;-0.10;99.90;;;;;;4941307;28;20039;-84
2021/12/23 01:35:55;;;;;;;26.70;17.52;;;-0.70;99.90;;;;;;4941266;28;20034;-84
2021/12/23 01:38:21;;;;;;;26.42;17.77;;;-0.50;99.90;;;;;;4936588;28;20044;-84
2021/12/23 01:40:47;;;;;;;26.23;17.23;;;-0.70;99.90;;;;;;4940525;28;20092;-84
2021/12/23 01:43:16;;;;;;;25.85;16.92;;;-0.70;99.90;;;;;;4925670;28;20387;-84
2021/12/23 01:45:46;;;;;;;25.83;16.65;;;-0.10;99.90;;;;;;4956958;28;20035;-84
2021/12/23 01:48:12;;;;;;;26.45;17.05;;;-0.60;99.90;;;;;;4957329;28;20039;-84
2021/12/23 01:50:39;;;;;;;23.85;17.08;;;-0.50;99.90;;;;;;4925885;28;20529;-84
2021/12/23 01:53:05;;;;;;;26.92;17.58;;;-0.60;99.90;;;;;;4941657;28;20491;-84
2021/12/23 01:55:31;;;;;;;24.45;16.35;;;0.50;99.90;;;;;;4925086;28;20039;-84
2021/12/23 01:57:58;;;;;;;27.88;18.52;;;-0.60;99.90;;;;;;4925626;28;20047;-84
2021/12/23 02:00:27;;;;;;;26.25;17.98;;;-0.40;99.90;;;;;;4956795;28;20050;-83
2021/12/23 02:02:54;;;;;;;30.17;19.02;;;-0.70;99.90;;;;;;4941387;28;20053;-83
2021/12/23 02:05:20;;;;;;;26.35;18.15;;;-0.70;99.90;;;;;;4956727;28;20035;-84
2021/12/23 02:07:46;;;;;;;25.52;17.60;;;-0.80;99.90;;;;;;4925350;28;20053;-84
2021/12/23 02:10:12;;;;;;;24.73;18.35;;;-0.70;99.90;;;;;;4956151;28;20039;-84
2021/12/23 02:12:42;;;;;;;25.98;16.98;;;-0.70;99.90;;;;;;4941009;28;20050;-84
2021/12/23 02:15:08;;;;;;;25.85;18.85;;;-0.10;99.90;;;;;;4957058;28;20569;-84
2021/12/23 02:17:36;;;;;;;25.55;17.75;;;-0.60;99.90;;;;;;4940909;28;20038;-84
2021/12/23 02:20:03;;;;;;;25.50;18.38;;;-0.70;99.90;;;;;;4956586;28;20070;-84
2021/12/23 02:22:28;;;;;;;26.45;17.60;;;-0.70;99.90;;;;;;4956805;28;20129;-84
2021/12/23 02:24:54;;;;;;;23.95;16.50;;;-0.60;99.90;;;;;;4940897;28;20046;-84
2021/12/23 02:27:20;;;;;;;25.02;16.52;;;-0.50;99.90;;;;;;4939781;28;20066;-84
2021/12/23 02:29:46;;;;;;;22.77;14.13;;;-0.60;99.90;;;;;;4972912;28;20126;-84
2021/12/23 02:32:11;;;;;;;20.00;11.77;;;-0.50;99.90;;;;;;4956437;28;20038;-84
2021/12/23 02:34:37;;;;;;;11.32;5.65;;;-0.50;99.90;;;;;;4956695;28;20184;-84
2021/12/23 02:37:03;;;;;;;8.45;4.78;;;0.50;99.90;;;;;;4972609;28;20105;-84
2021/12/23 02:39:30;;;;;;;15.73;9.32;;;-0.50;99.90;;;;;;4972792;28;20165;-84
2021/12/23 02:41:56;;;;;;;23.33;13.25;;;-0.40;99.90;;;;;;4972169;28;20502;-84
2021/12/23 02:44:22;;;;;;;25.02;15.55;;;0.40;99.90;;;;;;4940872;28;20487;-84
2021/12/23 02:46:48;;;;;;;9.75;5.05;;;-0.60;99.90;;;;;;4972477;28;20049;-84
2021/12/23 02:49:15;;;;;;;20.73;12.38;;;-0.50;99.90;;;;;;4956728;28;20042;-84
2021/12/23 02:51:41;;;;;;;26.23;17.60;;;0.10;99.90;;;;;;4940458;28;20038;-84
2021/12/23 02:54:07;;;;;;;25.73;16.85;;;-0.50;99.90;;;;;;4940348;28;20038;-84
2021/12/23 02:56:33;;;;;;;24.85;17.88;;;0.50;99.90;;;;;;4939660;28;20046;-84
2021/12/23 02:59:00;;;;;;;28.15;18.35;;;-0.60;99.90;;;;;;4976290;28;20047;-84
2021/12/23 03:01:26;;;;;;;27.45;18.13;;;-0.20;99.90;;;;;;4959789;28;20085;-84
2021/12/23 03:03:52;;;;;;;26.10;18.02;;;-0.60;99.90;;;;;;4960335;28;20458;-84
2021/12/23 03:06:20;;;;;;;23.90;16.42;;;-0.60;99.90;;;;;;4960046;28;20101;-84
2021/12/23 03:08:49;;;;;;;25.70;17.00;;;-0.10;99.90;;;;;;4976179;28;20038;-84
2021/12/23 03:11:18;;;;;;;23.98;17.50;;;-0.40;99.90;;;;;;4959024;28;20465;-84
2021/12/23 03:13:44;;;;;;;25.23;17.90;;;-0.60;99.90;;;;;;4959791;28;20039;-84
2021/12/23 03:16:13;;;;;;;27.20;18.38;;;-0.50;99.90;;;;;;4959468;28;20035;-84
2021/12/23 03:18:39;;;;;;;26.20;17.98;;;-0.70;99.90;;;;;;4975572;28;20042;-84
2021/12/23 03:21:06;;;;;;;26.45;17.90;;;-0.70;99.90;;;;;;4927560;28;20122;-84
2021/12/23 03:23:32;;;;;;;24.88;17.73;;;-0.60;99.90;;;;;;4959252;28;20121;-84
2021/12/23 03:25:59;;;;;;;27.35;17.98;;;-0.60;99.90;;;;;;4942587;28;20050;-84
2021/12/23 03:28:25;;;;;;;26.80;18.90;;;-0.60;99.90;;;;;;4943349;28;20042;-84
2021/12/23 03:30:51;;;;;;;28.90;18.48;;;-0.60;99.90;;;;;;4975532;28;20565;-84
2021/12/23 03:33:17;;;;;;;28.77;19.15;;;-0.60;99.90;;;;;;4918357;29;20050;-84
2021/12/23 03:35:44;;;;;;;25.48;17.63;;;-0.50;99.90;;;;;;4924090;29;20122;-84
2021/12/23 03:38:10;;;;;;;24.48;16.27;;;-0.40;99.90;;;;;;4924240;29;20101;-84
2021/12/23 03:40:36;;;;;;;19.05;10.80;;;-0.50;99.90;;;;;;4939348;29;20487;-84
2021/12/23 03:43:02;;;;;;;17.40;11.15;;;-0.30;99.90;;;;;;4924297;29;20403;-84
2021/12/23 03:45:28;;;;;;;18.15;10.73;;;0.40;99.90;;;;;;4955789;29;20043;-84
2021/12/23 03:47:53;;;;;;;20.45;12.98;;;-0.20;99.90;;;;;;4924220;29;20056;-84
2021/12/23 03:50:22;;;;;;;24.42;16.67;;;-0.30;99.90;;;;;;4923809;29;20047;-84
2021/12/23 03:52:48;;;;;;;24.10;16.90;;;-0.30;99.90;;;;;;4939875;29;20039;-84
2021/12/23 03:55:15;;;;;;;25.40;17.75;;;0.20;99.90;;;;;;4954679;29;20047;-84
2021/12/23 03:57:41;;;;;;;25.80;17.27;;;-0.40;99.90;;;;;;4939927;29;20479;-84
2021/12/23 04:00:11;;;;;;;25.75;15.88;;;-0.40;99.90;;;;;;4955880;29;20510;-84
2021/12/23 04:02:37;;;;;;;24.45;16.23;;;-0.40;99.90;;;;;;4955902;29;20451;-84
2021/12/23 04:05:06;;;;;;;26.00;16.98;;;-0.40;99.90;;;;;;4939471;29;20043;-84
2021/12/23 04:07:32;;;;;;;24.83;16.25;;;-0.40;99.90;;;;;;4939957;28;20105;-84
2021/12/23 04:09:58;;;;;;;25.75;18.02;;;-0.30;99.90;;;;;;4923517;29;20043;-84
2021/12/23 04:12:24;;;;;;;25.73;17.88;;;-0.30;99.90;;;;;;4954686;29;20126;-84
2021/12/23 04:14:50;;;;;;;25.95;18.05;;;0.50;99.90;;;;;;4939254;29;20145;-84
2021/12/23 04:17:16;;;;;;;25.88;17.65;;;-0.10;99.90;;;;;;4923315;29;20086;-84
2021/12/23 04:19:44;;;;;;;25.42;17.15;;;-0.10;99.90;;;;;;4939766;28;20074;-84
2021/12/23 04:22:09;;;;;;;25.65;16.45;;;0.00;99.90;;;;;;4924674;29;20097;-84
2021/12/23 04:24:35;;;;;;;22.60;15.82;;;-0.20;99.90;;;;;;4923780;29;20087;-84
2021/12/23 04:27:01;;;;;;;24.30;16.33;;;-0.20;99.90;;;;;;4906741;29;20046;-84
2021/12/23 04:29:27;;;;;;;23.02;15.02;;;-0.20;99.90;;;;;;4907852;29;20041;-84
2021/12/23 04:31:53;;;;;;;25.50;17.90;;;-0.20;99.90;;;;;;4907531;29;20035;-84
2021/12/23 04:34:18;;;;;;;26.13;16.15;;;-0.20;99.90;;;;;;4923835;29;20035;-84
2021/12/23 04:36:44;;;;;;;24.45;17.10;;;0.00;99.90;;;;;;4907217;29;20050;-84
2021/12/23 04:39:10;;;;;;;27.85;17.70;;;-0.20;99.90;;;;;;4938910;29;20043;-84
2021/12/23 04:41:38;;;;;;;23.77;16.48;;;-0.20;99.90;;;;;;4906762;29;20047;-84
2021/12/23 04:44:04;;;;;;;23.40;15.90;;;-0.20;99.90;;;;;;4907678;29;20051;-84
2021/12/23 04:46:30;;;;;;;21.27;14.52;;;-0.10;99.90;;;;;;4938872;29;20399;-84
2021/12/23 04:48:55;;;;;;;24.65;16.77;;;0.00;99.90;;;;;;4954832;29;20035;-84
2021/12/23 04:51:21;;;;;;;25.05;16.90;;;1.00;99.90;;;;;;4922844;29;20447;-84
2021/12/23 04:53:48;;;;;;;24.52;17.02;;;-0.20;99.90;;;;;;4954813;29;20042;-84
2021/12/23 04:56:15;;;;;;;26.35;18.08;;;-0.20;99.90;;;;;;4922385;29;20133;-84
2021/12/23 04:58:42;;;;;;;25.73;17.58;;;0.10;99.90;;;;;;4923067;29;20395;-84
2021/12/23 05:01:17;;;;;;;24.65;18.17;;;-0.20;99.90;;;;;;4926329;28;20031;-84
2021/12/23 05:03:43;;;;;;;25.10;17.98;;;-0.30;99.90;;;;;;4957701;28;20045;-84
2021/12/23 05:06:09;;;;;;;26.33;18.55;;;-0.30;99.90;;;;;;4941698;28;20042;-84
2021/12/23 05:08:34;;;;;;;24.08;17.17;;;-0.30;99.90;;;;;;4926002;28;20041;-84
2021/12/23 05:11:00;;;;;;;24.83;18.23;;;-0.30;99.90;;;;;;4956566;28;20575;-84
2021/12/23 05:13:26;;;;;;;25.70;18.25;;;0.00;99.90;;;;;;4941658;28;20043;-84
2021/12/23 05:15:51;;;;;;;26.35;18.75;;;-0.30;99.90;;;;;;4941547;28;20046;-84
2021/12/23 05:18:17;;;;;;;25.52;18.92;;;-0.20;99.90;;;;;;4957592;28;20038;-84
2021/12/23 05:20:44;;;;;;;26.20;18.25;;;-0.30;99.90;;;;;;4925204;28;20039;-84
2021/12/23 05:23:09;;;;;;;24.95;17.92;;;-0.30;99.90;;;;;;4941544;28;20510;-84
2021/12/23 05:25:35;;;;;;;25.88;18.70;;;-0.30;99.90;;;;;;4924524;28;20058;-84
2021/12/23 05:28:01;;;;;;;26.17;18.08;;;-0.30;99.90;;;;;;4925904;28;20398;-84
2021/12/23 05:30:27;;;;;;;27.13;19.27;;;-0.30;99.90;;;;;;4941152;28;20039;-84
2021/12/23 05:32:54;;;;;;;24.98;17.58;;;-0.20;99.90;;;;;;4957109;28;20101;-84
2021/12/23 05:35:20;;;;;;;26.85;18.85;;;-0.30;99.90;;;;;;4941011;28;20038;-84
2021/12/23 05:37:47;;;;;;;27.05;18.92;;;-0.30;99.90;;;;;;4957220;28;20043;-84
2021/12/23 05:40:15;;;;;;;25.50;17.83;;;-0.30;99.90;;;;;;4956309;28;20089;-84
2021/12/23 05:42:41;;;;;;;26.98;17.38;;;-0.30;99.90;;;;;;4973413;28;20502;-84
2021/12/23 05:45:08;;;;;;;25.48;18.67;;;-0.30;99.90;;;;;;4941596;28;20553;-84
2021/12/23 05:47:33;;;;;;;26.83;19.30;;;-0.30;99.90;;;;;;4941702;28;20034;-84
2021/12/23 05:49:59;;;;;;;26.60;18.55;;;0.60;99.90;;;;;;4941586;28;20085;-84
2021/12/23 05:52:25;;;;;;;25.67;17.95;;;-0.40;99.90;;;;;;4940999;28;20441;-84
2021/12/23 05:54:50;;;;;;;26.17;18.75;;;-0.30;99.90;;;;;;4925296;28;20043;-84
2021/12/23 05:57:17;;;;;;;26.75;19.00;;;-0.30;99.90;;;;;;4940380;28;20101;-84
2021/12/23 05:59:43;;;;;;;28.33;19.75;;;0.50;99.90;;;;;;4957066;28;20057;-84
2021/12/23 06:02:09;;;;;;;28.27;19.85;;;-0.30;99.90;;;;;;4941072;28;20561;-84
2021/12/23 06:04:36;;;;;;;28.63;19.98;;;-0.30;99.90;;;;;;4941049;28;20081;-84
2021/12/23 06:07:03;;;;;;;30.05;20.20;;;-0.40;99.90;;;;;;4941019;28;20042;-84
2021/12/23 06:09:28;;;;;;;24.95;17.00;;;-0.30;99.90;;;;;;4956931;28;20129;-84
2021/12/23 06:11:54;;;;;;;29.35;19.60;;;-0.30;99.90;;;;;;4972155;28;20262;-84
2021/12/23 06:14:21;;;;;;;28.17;19.65;;;-0.20;99.90;;;;;;4941093;28;20043;-84
2021/12/23 06:16:47;;;;;;;28.13;18.48;;;-0.30;99.90;;;;;;4956618;28;20125;-84
2021/12/23 06:19:13;;;;;;;30.20;20.42;;;0.20;99.90;;;;;;4925216;28;20758;-84
2021/12/23 06:21:39;;;;;;;29.33;19.63;;;-0.30;99.90;;;;;;4956770;28;20046;-84
2021/12/23 06:24:06;;;;;;;28.58;19.38;;;-0.20;99.90;;;;;;4940608;28;20047;-84
2021/12/23 06:26:32;;;;;;;25.98;18.27;;;-0.30;99.90;;;;;;4971850;28;20038;-84
2021/12/23 06:28:59;;;;;;;28.92;19.60;;;-0.20;99.90;;;;;;4941238;28;20125;-84
2021/12/23 06:31:25;;;;;;;29.27;19.50;;;-0.20;99.90;;;;;;4940532;28;20049;-84
2021/12/23 06:33:51;;;;;;;27.38;19.38;;;-0.20;99.90;;;;;;4928729;28;20077;-84
2021/12/23 06:36:17;;;;;;;29.52;19.10;;;-0.10;99.90;;;;;;4960164;28;20078;-84
2021/12/23 06:38:44;;;;;;;28.75;19.73;;;0.00;99.90;;;;;;4928505;28;20050;-84
2021/12/23 06:41:12;;;;;;;29.40;19.38;;;-0.20;99.90;;;;;;4959523;28;20035;-84
2021/12/23 06:43:39;;;;;;;27.45;19.85;;;-0.10;99.90;;;;;;4944456;28;20042;-84
2021/12/23 06:46:05;;;;;;;28.67;19.75;;;-0.20;99.90;;;;;;4960260;28;20049;-84
2021/12/23 06:48:32;;;;;;;28.60;19.90;;;-0.20;99.90;;;;;;4960441;28;20047;-84
2021/12/23 06:50:59;;;;;;;28.45;19.73;;;-0.20;99.90;;;;;;4928154;28;20105;-84
2021/12/23 06:53:26;;;;;;;29.92;20.65;;;0.80;99.90;;;;;;4976163;28;20129;-84
2021/12/23 06:55:52;;;;;;;29.50;20.35;;;0.10;99.90;;;;;;4959382;28;20403;-84
2021/12/23 06:58:19;;;;;;;29.48;21.23;;;0.70;99.90;;;;;;4975959;28;20045;-84
2021/12/23 07:00:45;;;;;;;31.55;20.58;;;0.10;99.90;;;;;;4959744;28;20053;-84
2021/12/23 07:03:11;;;;;;;28.70;20.45;;;-0.20;99.90;;;;;;4935777;28;20453;-84
2021/12/23 07:05:37;;;;;;;29.13;21.02;;;-0.20;99.90;;;;;;4959703;28;20051;-84
2021/12/23 07:08:09;;;;;;;28.60;20.13;;;0.50;99.90;;;;;;4944121;28;20047;-84
2021/12/23 07:10:35;;;;;;;30.88;20.38;;;-0.20;99.90;;;;;;4927404;28;20038;-84
2021/12/23 07:13:00;;;;;;;29.98;20.80;;;-0.10;99.90;;;;;;4959525;28;20046;-84
2021/12/23 07:15:27;;;;;;;32.60;21.70;;;0.70;99.90;;;;;;4943374;28;20517;-84
2021/12/23 07:17:55;;;;;;;30.30;21.90;;;-0.10;99.90;;;;;;4959644;28;20541;-84
2021/12/23 07:20:23;;;;;;;32.65;22.85;;;0.10;99.90;;;;;;4958819;28;20046;-84
2021/12/23 07:22:48;;;;;;;30.80;20.73;;;-0.10;99.90;;;;;;4959094;28;20054;-83
2021/12/23 07:25:15;;;;;;;29.73;20.30;;;-0.10;99.90;;;;;;4957919;28;20054;-84
2021/12/23 07:27:42;;;;;;;31.27;21.80;;;0.00;99.90;;;;;;4943591;28;20034;-84
2021/12/23 07:30:11;;;;;;;31.58;20.95;;;0.00;99.90;;;;;;4959671;28;20482;-84
2021/12/23 07:32:37;;;;;;;30.35;21.38;;;0.00;99.90;;;;;;4959372;28;20031;-84
2021/12/23 07:35:04;;;;;;;32.50;22.25;;;0.00;99.90;;;;;;4927595;28;20449;-85
2021/12/23 07:37:29;;;;;;;30.48;21.48;;;0.00;99.90;;;;;;4958704;28;20053;-84
2021/12/23 07:39:55;;;;;;;34.40;22.02;;;-0.10;99.90;;;;;;4943276;28;20046;-84
2021/12/23 07:42:22;;;;;;;32.13;22.23;;;0.10;99.90;;;;;;4942297;28;20046;-84
2021/12/23 07:44:48;;;;;;;32.35;22.67;;;0.00;99.90;;;;;;4959014;28;20495;-87
2021/12/23 07:47:15;;;;;;;32.85;23.08;;;0.10;99.90;;;;;;4927466;28;20046;-85
2021/12/23 07:49:41;;;;;;;33.13;22.98;;;0.00;99.90;;;;;;4959100;28;20038;-85
2021/12/23 07:52:08;;;;;;;33.97;22.63;;;0.00;99.90;;;;;;4958933;28;20053;-87
2021/12/23 07:54:35;;;;;;;32.25;21.70;;;0.00;99.90;;;;;;4956919;28;20121;-86
2021/12/23 07:57:01;;;;;;;30.80;21.40;;;0.30;99.90;;;;;;4957483;28;20486;-87
2021/12/23 07:59:28;;;;;;;31.90;22.67;;;0.10;99.90;;;;;;4926699;28;20066;-87
2021/12/23 08:01:55;;;;;;;31.77;21.98;;;0.10;99.90;;;;;;4940080;28;20078;-87
2021/12/23 08:04:21;;;;;;;35.65;24.70;;;0.10;99.90;;;;;;4941978;28;20487;-87
2021/12/23 08:06:51;;;;;;;35.97;24.02;;;0.50;99.90;;;;;;4926731;28;20097;-88
2021/12/23 08:09:17;;;;;;;35.88;24.77;;;0.10;99.90;;;;;;4974509;28;20037;-89
2021/12/23 08:11:43;;;;;;;32.95;23.85;;;0.90;99.90;;;;;;4930555;28;20035;-88
2021/12/23 08:14:09;;;;;;;37.33;24.42;;;0.70;99.90;;;;;;4936359;28;20508;-86
2021/12/23 08:16:35;;;;;;;35.50;24.42;;;0.80;99.90;;;;;;4958873;28;20043;-85
2021/12/23 08:19:00;;;;;;;38.13;24.67;;;0.60;99.90;;;;;;4923237;29;20054;-86
2021/12/23 08:21:28;;;;;;;35.88;22.75;;;1.30;99.90;;;;;;4935132;29;20050;-84
2021/12/23 08:23:54;;;;;;;36.05;24.15;;;0.10;99.90;;;;;;4939245;28;20125;-85
2021/12/23 08:26:26;;;;;;;37.88;25.30;;;0.10;99.90;;;;;;4906926;29;20058;-84
2021/12/23 08:28:52;;;;;;;;;;;0.70;99.90;;;;;;4939837;29;20058;-84
2021/12/23 08:31:20;;;;;;;38.00;24.90;;;0.20;99.90;;;;;;4954976;29;19919;-84
2021/12/23 08:33:47;;;;;;;35.60;22.92;;;0.20;99.90;;;;;;4961228;28;20057;-86
2021/12/23 08:36:13;;;;;;;39.80;26.25;;;0.20;99.90;;;;;;4955816;28;20035;-83
2021/12/23 08:38:40;;;;;;;38.97;25.27;;;0.20;99.90;;;;;;4958433;28;20174;-84
2021/12/23 08:41:07;;;;;;;38.30;25.23;;;0.20;99.90;;;;;;4939959;29;20039;-86
2021/12/23 08:43:32;;;;;;;41.88;27.55;;;0.20;99.90;;;;;;4909517;29;20398;-86
2021/12/23 08:45:58;;;;;;;39.70;27.80;;;0.20;99.90;;;;;;4939275;29;20102;-86
2021/12/23 08:48:24;;;;;;;39.28;27.15;;;0.30;99.90;;;;;;4955067;29;20415;-86
2021/12/23 08:50:50;;;;;;;40.40;26.20;;;0.30;99.90;;;;;;4907784;29;20488;-87
2021/12/23 08:53:16;;;;;;;43.97;29.38;;;0.60;99.90;;;;;;4947327;28;20046;-87
2021/12/23 08:55:42;;;;;;;42.47;28.38;;;0.40;99.90;;;;;;4957008;28;20042;-86
2021/12/23 08:58:08;;;;;;;48.05;30.63;;;0.20;99.90;;;;;;4958482;28;20039;-87
2021/12/23 09:00:36;;;;;;;44.33;30.58;;;0.30;99.90;;;;;;4958066;28;20049;-85
2021/12/23 09:03:05;;;;;;;41.97;28.45;;;0.10;99.90;;;;;;4973954;28;20070;-85
2021/12/23 09:05:32;;;;;;;44.63;29.15;;;0.20;99.90;;;;;;4937035;28;20038;-86
2021/12/23 09:07:58;;;;;;;45.85;31.17;;;0.30;99.90;;;;;;4958292;28;20034;-86
2021/12/23 09:10:24;;;;;;;49.05;33.10;;;0.20;99.90;;;;;;4941138;28;20109;-85
2021/12/23 09:12:51;;;;;;;49.25;31.33;;;0.50;99.90;;;;;;4958127;28;20490;-85
2021/12/23 09:15:18;;;;;;;46.92;31.17;;;1.10;99.90;;;;;;4924022;28;20420;-84
2021/12/23 09:17:44;;;;;;;52.92;34.53;;;0.30;99.90;;;;;;4924968;28;20051;-84
2021/12/23 09:20:12;;;;;;;46.92;31.67;;;0.30;99.90;;;;;;4963974;28;20046;-84
2021/12/23 09:22:39;;;;;;;47.13;29.73;;;0.30;99.90;;;;;;4932200;28;20043;-85
2021/12/23 09:25:12;;;;;;;49.67;32.55;;;0.30;99.90;;;;;;4942585;28;20081;-85
2021/12/23 09:28:02;;;;;;;49.03;31.88;;;0.30;99.90;;;;;;4947136;28;20039;-84
2021/12/23 09:33:13;;;;;;;53.75;34.55;;;0.30;99.90;;;;;;4951377;28;20122;-84
2021/12/23 09:35:39;;;;;;;49.50;32.78;;;0.40;99.90;;;;;;4951843;28;20122;-85
2021/12/23 09:38:06;;;;;;;51.50;33.38;;;0.30;99.90;;;;;;4923471;28;20042;-86
2021/12/23 09:40:33;;;;;;;52.85;31.45;;;0.40;99.90;;;;;;4949658;28;20047;-83
2021/12/23 09:43:01;;;;;;;51.28;30.23;;;0.30;99.90;;;;;;4962520;28;21215;-83
2021/12/23 09:45:28;;;;;;;51.60;32.33;;;0.30;99.90;;;;;;4947439;28;20044;-83
2021/12/23 09:47:56;;;;;;;60.03;35.08;;;0.30;99.90;;;;;;4923854;28;20390;-83
2021/12/23 09:50:26;;;;;;;56.55;35.08;;;0.30;99.90;;;;;;4966697;28;20042;-83
2021/12/23 09:52:53;;;;;;;60.15;38.28;;;1.00;99.90;;;;;;4948486;28;20414;-83
2021/12/23 09:55:25;;;;;;;57.17;35.42;;;0.30;99.90;;;;;;4940013;28;20506;-83
2021/12/23 09:57:53;;;;;;;59.33;36.63;;;0.50;99.90;;;;;;4960375;28;20034;-83
2021/12/23 10:00:22;;;;;;;60.92;37.17;;;1.10;99.90;;;;;;4948519;28;20146;-83
2021/12/23 10:02:49;;;;;;;56.33;36.25;;;0.40;99.90;;;;;;4961331;28;20509;-83
2021/12/23 10:05:17;;;;;;;60.30;37.45;;;1.30;99.90;;;;;;4960924;28;20046;-83
2021/12/23 10:07:45;;;;;;;61.92;36.63;;;0.40;99.90;;;;;;4970353;28;20494;-83
2021/12/23 10:10:20;;;;;;;60.78;35.80;;;0.40;99.90;;;;;;4940357;28;20446;-83
2021/12/23 10:32:20;;;;;;;63.70;39.13;;;0.70;99.90;;;;;;4971883;28;20054;-85
2021/12/23 10:37:18;;;;;;;63.15;36.08;;;0.70;99.90;;;;;;4967614;28;20097;-84
2021/12/23 10:39:49;;;;;;;62.85;37.53;;;0.50;99.90;;;;;;4965997;28;20043;-83
2021/12/23 10:42:24;;;;;;;62.20;36.58;;;0.50;99.90;;;;;;4960313;28;20068;-83
2021/12/23 10:44:55;;;;;;;57.88;36.38;;;0.50;99.90;;;;;;4962761;28;20384;-84
2021/12/23 10:47:50;;;;;;;64.40;38.38;;;0.50;99.90;;;;;;4952417;28;20101;-86
2021/12/23 10:50:40;;;;;;;66.50;38.42;;;0.70;99.90;;;;;;4958513;28;20038;-84
2021/12/23 10:53:10;;;;;;;65.70;39.30;;;0.50;99.90;;;;;;4951992;28;20050;-84
2021/12/23 10:58:22;;;;;;;68.57;40.00;;;0.50;99.90;;;;;;4967441;28;20409;-85
2021/12/23 11:00:54;;;;;;;61.78;37.47;;;0.90;99.90;;;;;;4927084;28;20505;-84
2021/12/23 11:06:24;;;;;;;73.10;42.08;;;1.20;99.90;;;;;;4957523;28;20051;-83
2021/12/23 11:39:36;;;;;;;85.03;45.78;;;0.60;99.90;;;;;;4965804;28;20512;-84
2021/12/23 11:42:14;;;;;;;78.70;43.67;;;0.50;99.90;;;;;;4964708;28;20039;-84
2021/12/23 11:44:41;;;;;;;85.50;45.45;;;1.60;99.90;;;;;;4967086;28;20046;-84
2021/12/23 11:47:11;;;;;;;79.88;44.60;;;0.60;99.90;;;;;;4957710;28;20051;-84
2021/12/23 11:49:40;;;;;;;73.03;39.45;;;1.20;99.90;;;;;;4950837;28;20030;-85
2021/12/23 11:52:06;;;;;;;85.78;47.13;;;0.70;99.90;;;;;;4951926;28;20057;-85
2021/12/23 11:54:41;;;;;;;82.35;45.42;;;0.70;99.90;;;;;;4969488;28;20078;-85
2021/12/23 11:57:07;;;;;;;79.18;43.35;;;1.30;99.90;;;;;;4947413;28;20050;-84
2021/12/23 11:59:36;;;;;;;81.72;44.80;;;0.70;99.90;;;;;;4951908;28;20035;-84
2021/12/23 12:02:18;;;;;;;85.25;45.80;;;0.70;99.90;;;;;;4969863;28;20043;-84
2021/12/23 12:04:44;;;;;;;;;;;0.70;99.90;;;;;;4966057;28;20043;-84
2021/12/23 12:07:19;;;;;;;79.75;43.53;;;0.70;99.90;;;;;;4956889;28;20017;-85
2021/12/23 12:09:58;;;;;;;87.25;46.20;;;0.70;99.90;;;;;;4963271;28;20414;-85
2021/12/23 12:12:25;;;;;;;84.68;45.45;;;0.70;99.90;;;;;;4953064;28;20118;-85
2021/12/23 12:14:55;;;;;;;78.25;44.22;;;0.60;99.90;;;;;;4951909;28;20035;-84
2021/12/23 12:17:27;;;;;;;76.28;43.15;;;0.70;99.90;;;;;;4957154;28;20418;-84
2021/12/23 12:20:09;;;;;;;86.43;46.10;;;0.90;99.90;;;;;;4955544;28;20391;-85
2021/12/23 12:22:49;;;;;;;;;;;0.70;99.90;;;;;;4962727;28;20047;-84
2021/12/23 12:25:26;;;;;;;75.50;41.72;;;0.70;99.90;;;;;;4948195;28;19928;-84
2021/12/23 12:27:55;;;;;;;84.63;45.63;;;0.70;99.90;;;;;;4951388;28;20042;-85
2021/12/23 12:30:34;;;;;;;79.15;44.58;;;0.70;99.90;;;;;;4966447;28;20497;-85
2021/12/23 12:33:02;;;;;;;80.38;42.75;;;0.70;99.90;;;;;;4954889;28;20117;-85
2021/12/23 12:35:29;;;;;;;77.75;43.42;;;0.70;99.90;;;;;;4972783;28;20042;-85
2021/12/23 12:38:09;;;;;;;80.28;43.58;;;0.90;99.90;;;;;;4954134;28;20042;-85
2021/12/23 12:41:04;;;;;;;76.43;42.03;;;0.80;99.90;;;;;;4946850;28;20074;-85
2021/12/23 12:43:51;;;;;;;78.55;42.30;;;0.80;99.90;;;;;;4938873;28;20050;-85
2021/12/23 12:46:38;;;;;;;91.43;46.88;;;0.80;99.90;;;;;;4960489;28;20048;-84
2021/12/23 12:49:10;;;;;;;86.85;45.00;;;0.80;99.90;;;;;;4957036;28;20042;-85
2021/12/23 12:51:39;;;;;;;79.68;44.38;;;0.80;99.90;;;;;;4969486;28;20117;-85
2021/12/23 12:54:13;;;;;;;88.07;46.22;;;1.00;99.90;;;;;;4953513;28;20046;-85
2021/12/23 12:56:55;;;;;;;88.90;44.72;;;0.80;99.90;;;;;;4957077;28;20050;-86
2021/12/23 12:59:25;;;;;;;87.15;45.47;;;0.80;99.90;;;;;;4969585;28;20494;-84
2021/12/23 13:01:52;;;;;;;76.53;42.88;;;1.30;99.90;;;;;;4957542;28;20052;-85
2021/12/23 13:04:26;;;;;;;85.10;44.03;;;1.80;99.90;;;;;;4957814;28;20053;-85
2021/12/23 13:06:54;;;;;;;78.72;42.75;;;0.80;99.90;;;;;;4969931;28;20140;-86
2021/12/23 13:09:32;;;;;;;80.68;45.30;;;0.80;99.90;;;;;;4922142;28;20030;-86
2021/12/23 13:11:59;;;;;;;75.22;40.25;;;0.80;99.90;;;;;;4945970;28;20043;-86
2021/12/23 13:14:50;;;;;;;81.63;44.53;;;0.90;99.90;;;;;;4955526;28;20035;-86
2021/12/23 13:17:23;;;;;;;80.68;42.78;;;0.90;99.90;;;;;;4955111;28;20125;-86
2021/12/23 13:19:50;;;;;;;89.45;46.03;;;0.80;99.90;;;;;;4923150;28;20077;-86
2021/12/23 13:22:18;;;;;;;79.15;43.05;;;1.30;99.90;;;;;;4956375;28;20043;-86
2021/12/23 13:24:44;;;;;;;82.35;44.35;;;1.10;99.90;;;;;;4939665;28;20063;-86
2021/12/23 13:27:10;;;;;;;76.88;42.80;;;0.90;99.90;;;;;;4915302;28;20526;-85
2021/12/23 13:29:40;;;;;;;83.25;44.53;;;1.10;99.90;;;;;;4932543;28;20067;-86
2021/12/23 13:32:05;;;;;;;77.07;43.40;;;0.90;99.90;;;;;;4940016;28;20039;-87
2021/12/23 13:34:33;;;;;;;83.22;42.47;;;1.00;99.90;;;;;;4911441;28;20534;-86
2021/12/23 13:37:06;;;;;;;78.88;43.70;;;1.50;99.90;;;;;;4937473;28;20569;-85
2021/12/23 13:39:36;;;;;;;74.90;39.53;;;1.50;99.90;;;;;;4958979;28;20054;-85
2021/12/23 13:42:08;;;;;;;78.68;43.60;;;0.90;99.90;;;;;;4971044;28;20105;-85